Time;durP1;ratioP1;P1;durP2;ratioP2;P2;SDS_P1;SDS_P2;PMS_P1;PMS_P2;Temp;Humidity;BMP_temperature;BMP_pressure;BME280_temperature;BME280_humidity;BME280_pressure;Samples;Min_cycle;Max_cycle;Signal;HPM_P1;HPM_P2
2022/09/20 00:01:16;;;;;;;5.47;3.50;;;10.80;99.90;;;;;;4953688;28;20458;-66
2022/09/20 00:03:44;;;;;;;5.90;4.17;;;10.80;47.50;;;;;;4953598;28;20775;-67
2022/09/20 00:06:13;;;;;;;4.17;3.30;;;11.00;1.00;;;;;;4953424;28;20449;-65
2022/09/20 00:08:39;;;;;;;5.23;3.60;;;11.00;1.00;;;;;;4953418;28;20508;-66
2022/09/20 00:11:14;;;;;;;10.73;3.77;;;11.10;1.00;;;;;;4953182;28;20543;-66
2022/09/20 00:13:42;;;;;;;7.17;3.80;;;11.00;1.00;;;;;;4953524;28;20912;-66
2022/09/20 00:16:11;;;;;;;4.57;3.83;;;10.90;1.00;;;;;;4953212;28;20752;-66
2022/09/20 00:18:37;;;;;;;7.50;4.00;;;10.90;78.00;;;;;;4953226;28;20435;-66
2022/09/20 00:21:03;;;;;;;6.70;3.70;;;10.90;1.00;;;;;;4952865;28;20889;-66
2022/09/20 00:23:29;;;;;;;6.73;4.33;;;10.90;1.00;;;;;;4952593;28;20182;-66
2022/09/20 00:25:57;;;;;;;5.23;3.97;;;10.90;1.00;;;;;;4953274;28;20950;-65
2022/09/20 00:28:23;;;;;;;5.80;4.30;;;10.90;1.00;;;;;;4953201;28;20552;-65
2022/09/20 00:30:49;;;;;;;4.50;3.90;;;10.90;1.00;;;;;;4953015;28;20417;-66
2022/09/20 00:33:15;;;;;;;10.20;4.13;;;10.80;1.00;;;;;;4952483;28;20465;-66
2022/09/20 00:35:44;;;;;;;8.93;4.40;;;10.80;1.00;;;;;;4953555;28;20532;-65
2022/09/20 00:38:12;;;;;;;9.20;4.50;;;10.80;99.90;;;;;;4952686;28;20174;-66
2022/09/20 00:40:40;;;;;;;6.10;4.90;;;10.90;99.90;;;;;;4952561;28;20512;-65
2022/09/20 00:43:05;;;;;;;5.20;4.70;;;10.80;99.90;;;;;;4952333;28;20429;-65
2022/09/20 00:45:32;;;;;;;11.40;5.63;;;10.70;99.90;;;;;;4952035;28;20464;-65
2022/09/20 00:48:12;;;;;;;4.83;4.13;;;10.80;99.90;;;;;;4952569;28;20602;-66
2022/09/20 00:50:43;;;;;;;4.60;3.50;;;10.80;99.90;;;;;;4950611;28;20535;-66
2022/09/20 00:53:25;;;;;;;6.17;4.20;;;10.60;99.90;;;;;;4952636;28;20461;-66
2022/09/20 00:55:55;;;;;;;8.33;4.70;;;10.70;1.00;;;;;;4951159;28;20842;-66
2022/09/20 00:58:23;;;;;;;10.10;3.87;;;10.70;99.90;;;;;;4952321;28;20969;-67
2022/09/20 01:00:53;;;;;;;9.37;4.63;;;10.70;99.90;;;;;;4953775;28;20578;-66
2022/09/20 01:03:21;;;;;;;19.47;6.03;;;10.70;99.90;;;;;;4953674;28;20425;-66
2022/09/20 01:05:49;;;;;;;11.90;3.20;;;10.60;99.90;;;;;;4951924;28;20453;-67
2022/09/20 01:08:16;;;;;;;6.87;3.50;;;10.60;99.90;;;;;;4952834;28;20441;-66
2022/09/20 01:10:42;;;;;;;9.17;3.87;;;10.60;99.90;;;;;;4949826;28;20433;-67
2022/09/20 01:13:08;;;;;;;8.67;4.10;;;10.50;1.00;;;;;;4952882;28;20461;-66
2022/09/20 01:15:36;;;;;;;16.30;4.27;;;10.50;99.90;;;;;;4952679;28;20452;-66
2022/09/20 01:18:03;;;;;;;5.77;3.60;;;10.40;99.90;;;;;;4953877;28;20174;-66
2022/09/20 01:20:39;;;;;;;4.27;3.70;;;10.40;99.90;;;;;;4955621;28;20488;-66
2022/09/20 01:23:38;;;;;;;5.67;3.70;;;10.30;1.00;;;;;;4950564;28;20448;-66
2022/09/20 01:26:32;;;;;;;10.73;4.60;;;10.30;1.00;;;;;;4952257;28;20445;-66
2022/09/20 01:29:09;;;;;;;8.00;3.57;;;10.20;1.00;;;;;;4950483;28;20437;-67
2022/09/20 01:31:44;;;;;;;3.70;3.20;;;10.30;99.90;;;;;;4954140;28;20445;-66
2022/09/20 01:34:20;;;;;;;3.87;3.57;;;10.20;99.90;;;;;;4953468;28;20421;-66
2022/09/20 01:37:04;;;;;;;5.33;3.90;;;10.30;99.90;;;;;;4953522;28;20422;-67
2022/09/20 01:39:48;;;;;;;7.03;4.20;;;10.30;99.90;;;;;;4955939;28;20472;-66
2022/09/20 01:42:14;;;;;;;7.93;3.70;;;10.30;1.00;;;;;;4954728;28;20549;-66
2022/09/20 01:45:11;;;;;;;6.80;3.37;;;10.20;80.70;;;;;;4954332;28;20462;-67
2022/09/20 01:47:41;;;;;;;3.40;3.07;;;10.20;1.00;;;;;;4952752;28;20438;-67
2022/09/20 01:50:34;;;;;;;4.73;3.10;;;10.10;99.90;;;;;;4955248;28;20430;-66
2022/09/20 01:53:18;;;;;;;10.53;3.40;;;10.20;13.80;;;;;;4954901;28;20528;-66
2022/09/20 01:56:11;;;;;;;4.57;3.10;;;10.10;58.70;;;;;;4952654;28;20449;-66
2022/09/20 01:59:07;;;;;;;4.27;3.63;;;10.10;99.90;;;;;;4954569;28;20795;-66
2022/09/20 02:02:15;;;;;;;3.80;2.97;;;10.10;99.90;;;;;;4954447;28;20426;-66
2022/09/20 02:04:57;;;;;;;4.37;3.70;;;10.10;99.90;;;;;;4951688;28;20507;-66
2022/09/20 02:08:04;;;;;;;8.07;4.57;;;10.10;99.90;;;;;;4953580;28;20425;-66
2022/09/20 02:10:42;;;;;;;5.20;4.70;;;10.10;99.90;;;;;;4949928;28;20496;-66
2022/09/20 02:13:32;;;;;;;6.90;4.23;;;10.20;99.90;;;;;;4955120;28;20588;-66
2022/09/20 02:16:23;;;;;;;10.00;4.10;;;10.10;99.90;;;;;;4954709;28;20537;-66
2022/09/20 02:19:16;;;;;;;7.00;4.20;;;10.10;1.00;;;;;;4948038;29;20418;-65
2022/09/20 02:21:42;;;;;;;5.40;3.63;;;10.10;1.00;;;;;;4955559;28;20821;-66
2022/09/20 02:24:17;;;;;;;5.83;3.73;;;10.00;1.00;;;;;;4936193;29;20433;-66
2022/09/20 02:27:10;;;;;;;12.07;4.23;;;10.10;1.00;;;;;;4936265;29;20635;-66
2022/09/20 02:29:53;;;;;;;6.83;3.30;;;10.20;99.90;;;;;;4936175;29;20565;-66
2022/09/20 02:32:27;;;;;;;8.87;3.63;;;10.10;99.90;;;;;;4936234;29;20458;-66
2022/09/20 02:35:07;;;;;;;5.47;3.23;;;10.10;99.90;;;;;;4943764;29;20425;-66
2022/09/20 02:37:44;;;;;;;7.43;3.40;;;10.10;51.80;;;;;;4954689;28;20965;-66
2022/09/20 02:40:22;;;;;;;4.23;3.50;;;10.20;1.00;;;;;;4954228;29;20428;-66
2022/09/20 02:43:15;;;;;;;5.03;2.83;;;10.20;1.00;;;;;;4954669;28;20919;-66
2022/09/20 02:46:06;;;;;;;4.30;3.37;;;10.10;24.50;;;;;;4953571;28;20453;-66
2022/09/20 02:49:17;;;;;;;6.50;3.50;;;10.10;1.00;;;;;;4954502;28;20476;-66
2022/09/20 02:51:55;;;;;;;4.67;3.23;;;10.00;1.00;;;;;;4954382;28;20785;-66
2022/09/20 02:54:54;;;;;;;13.33;3.37;;;10.00;1.00;;;;;;4954190;28;20438;-66
2022/09/20 02:57:38;;;;;;;11.93;3.23;;;10.10;1.00;;;;;;4935042;29;20430;-66
2022/09/20 03:00:13;;;;;;;4.10;2.80;;;10.10;1.00;;;;;;4934773;29;20406;-66
2022/09/20 03:03:26;;;;;;;4.57;2.97;;;10.00;1.00;;;;;;4935150;29;20421;-66
2022/09/20 03:06:13;;;;;;;5.53;2.60;;;10.00;1.00;;;;;;4916081;29;20442;-66
2022/09/20 03:08:53;;;;;;;4.20;3.10;;;10.00;1.00;;;;;;4935080;29;20767;-66
2022/09/20 03:11:59;;;;;;;3.13;2.80;;;10.00;1.00;;;;;;4942394;29;20406;-66
2022/09/20 03:14:41;;;;;;;4.63;2.93;;;10.10;99.90;;;;;;4935007;29;20848;-67
2022/09/20 03:17:35;;;;;;;5.10;3.17;;;10.00;99.90;;;;;;4944249;28;21103;-67
2022/09/20 03:20:24;;;;;;;7.83;2.70;;;10.00;99.90;;;;;;4959280;28;20402;-66
2022/09/20 03:23:23;;;;;;;10.73;3.90;;;10.00;99.90;;;;;;4954161;28;20464;-66
2022/09/20 03:26:13;;;;;;;14.33;4.43;;;10.00;99.90;;;;;;4954062;28;20470;-66
2022/09/20 03:29:24;;;;;;;5.57;3.40;;;10.00;99.90;;;;;;4953973;28;20780;-66
2022/09/20 03:31:59;;;;;;;4.50;2.87;;;9.90;1.00;;;;;;4931790;29;20765;-67
2022/09/20 03:34:35;;;;;;;7.43;3.03;;;9.80;1.00;;;;;;4936254;29;20430;-66
2022/09/20 03:37:19;;;;;;;9.63;2.80;;;9.90;1.00;;;;;;4951819;29;20404;-66
2022/09/20 03:39:56;;;;;;;5.60;3.43;;;9.90;99.90;;;;;;4954198;28;20402;-66
2022/09/20 03:42:24;;;;;;;5.03;2.53;;;10.00;99.90;;;;;;4954499;28;20397;-66
2022/09/20 03:45:11;;;;;;;6.73;3.70;;;9.90;99.90;;;;;;4954746;28;20441;-66
2022/09/20 03:47:56;;;;;;;5.00;2.90;;;9.80;99.90;;;;;;4954188;28;20424;-66
2022/09/20 03:50:30;;;;;;;8.60;3.97;;;9.90;99.90;;;;;;4954835;28;21086;-65
2022/09/20 03:53:17;;;;;;;5.83;2.63;;;10.00;1.00;;;;;;4956797;28;20445;-66
2022/09/20 03:55:56;;;;;;;6.80;3.40;;;10.00;1.00;;;;;;4960896;28;20437;-66
2022/09/20 03:58:48;;;;;;;3.63;2.90;;;10.00;1.00;;;;;;4960168;28;20527;-66
2022/09/20 04:01:40;;;;;;;16.87;4.77;;;9.90;1.00;;;;;;4960956;28;20438;-66
2022/09/20 04:04:30;;;;;;;11.33;3.10;;;9.80;1.00;;;;;;4953461;29;20904;-64
2022/09/20 04:07:05;;;;;;;12.77;3.33;;;9.80;1.00;;;;;;4953058;28;20421;-65
2022/09/20 04:10:17;;;;;;;10.47;3.13;;;9.90;1.00;;;;;;4952681;28;20491;-65
2022/09/20 04:13:19;;;;;;;12.20;4.13;;;10.00;1.00;;;;;;4952965;28;20548;-67
2022/09/20 04:16:03;;;;;;;57.90;8.77;;;10.00;1.00;;;;;;4953129;28;20429;-67
2022/09/20 04:18:35;;;;;;;5.73;2.57;;;10.00;1.00;;;;;;4952842;28;20476;-67
2022/09/20 04:21:11;;;;;;;7.40;2.57;;;10.00;1.00;;;;;;4961362;28;20429;-67
2022/09/20 04:23:57;;;;;;;6.60;3.63;;;10.00;1.00;;;;;;4953434;28;20472;-68
2022/09/20 04:26:29;;;;;;;5.97;2.30;;;10.00;99.90;;;;;;4952686;28;20453;-68
2022/09/20 04:29:21;;;;;;;2.93;2.60;;;10.00;1.00;;;;;;4952842;28;20398;-67
2022/09/20 04:31:58;;;;;;;9.40;3.80;;;9.90;1.00;;;;;;4952822;28;20406;-67
2022/09/20 04:37:37;;;;;;;4.77;2.60;;;9.90;1.00;;;;;;4950315;28;20500;-66
2022/09/20 04:40:25;;;;;;;4.87;3.10;;;9.90;1.00;;;;;;4952788;28;20433;-65
2022/09/20 04:42:57;;;;;;;8.27;3.57;;;9.90;99.90;;;;;;4949175;28;20421;-64
2022/09/20 04:45:26;;;;;;;78.90;11.80;;;9.90;99.90;;;;;;4952289;28;20460;-66
2022/09/20 04:48:03;;;;;;;28.93;5.70;;;9.90;1.00;;;;;;4953701;28;20433;-66
2022/09/20 04:50:49;;;;;;;9.97;4.70;;;10.00;99.90;;;;;;4952081;28;20815;-66
2022/09/20 04:53:33;;;;;;;13.40;3.47;;;10.10;1.00;;;;;;4954698;28;20545;-67
2022/09/20 04:56:05;;;;;;;19.43;4.20;;;10.00;1.00;;;;;;4950429;28;20496;-65
2022/09/20 04:58:31;;;;;;;17.20;3.23;;;10.00;1.00;;;;;;4952907;28;20425;-66
2022/09/20 05:01:18;;;;;;;11.13;4.50;;;10.00;1.00;;;;;;4950614;28;20763;-65
2022/09/20 05:04:21;;;;;;;13.33;4.20;;;10.00;1.00;;;;;;4946092;28;21014;-66
2022/09/20 05:07:02;;;;;;;7.07;3.37;;;10.10;1.00;;;;;;4947579;28;20564;-65
2022/09/20 05:09:27;;;;;;;13.77;4.43;;;10.10;1.00;;;;;;4955169;28;20437;-65
2022/09/20 05:12:11;;;;;;;10.13;4.07;;;10.10;1.00;;;;;;4955256;28;20966;-65
2022/09/20 05:14:56;;;;;;;7.00;3.57;;;10.10;1.00;;;;;;4957188;28;20210;-66
2022/09/20 05:17:33;;;;;;;12.10;4.40;;;10.10;1.00;;;;;;4956027;28;20529;-66
2022/09/20 05:20:05;;;;;;;26.40;5.10;;;10.10;1.00;;;;;;4954341;28;20445;-65
2022/09/20 05:22:55;;;;;;;23.20;5.30;;;10.10;99.90;;;;;;4954637;28;20424;-65
2022/09/20 05:25:50;;;;;;;22.93;5.90;;;10.20;99.90;;;;;;4953408;28;20579;-66
2022/09/20 05:28:39;;;;;;;28.30;6.27;;;10.30;99.90;;;;;;4928493;28;20489;-65
2022/09/20 05:31:16;;;;;;;11.07;6.43;;;10.30;56.80;;;;;;4951777;28;21226;-65
2022/09/20 05:34:02;;;;;;;7.63;4.30;;;10.30;1.00;;;;;;4945507;28;20551;-66
2022/09/20 05:36:50;;;;;;;21.77;5.90;;;10.30;1.00;;;;;;4948204;28;20448;-65
2022/09/20 05:39:32;;;;;;;24.37;4.60;;;10.40;1.00;;;;;;4952022;28;20426;-64
2022/09/20 05:42:33;;;;;;;32.60;6.50;;;10.30;1.00;;;;;;4949259;28;20430;-67
2022/09/20 05:45:22;;;;;;;18.27;5.00;;;10.20;99.90;;;;;;4888862;29;20483;-63
2022/09/20 05:47:58;;;;;;;9.80;4.40;;;10.30;95.30;;;;;;4950280;28;20608;-65
2022/09/20 05:50:43;;;;;;;25.80;5.80;;;10.20;99.90;;;;;;4950503;28;20430;-64
2022/09/20 05:53:59;;;;;;;38.27;7.70;;;10.30;99.90;;;;;;4951916;28;20552;-64
2022/09/20 05:57:00;;;;;;;22.63;6.10;;;10.30;1.00;;;;;;4939419;28;20494;-65
2022/09/20 05:59:33;;;;;;;13.40;4.60;;;10.30;1.00;;;;;;4936082;28;21002;-65
2022/09/20 06:02:07;;;;;;;18.63;5.23;;;10.30;1.00;;;;;;4950018;28;20436;-64
2022/09/20 06:04:49;;;;;;;19.37;6.70;;;10.30;1.00;;;;;;4952127;28;20798;-68
2022/09/20 06:07:23;;;;;;;11.03;4.50;;;10.40;99.90;;;;;;4953876;28;20425;-69
2022/09/20 06:09:54;;;;;;;14.33;3.77;;;11.40;1.00;;;;;;4948233;28;20429;-69
2022/09/20 06:12:38;;;;;;;20.63;5.90;;;12.20;1.00;;;;;;4951824;28;20468;-66
2022/09/20 06:15:33;;;;;;;35.50;7.23;;;11.80;1.00;;;;;;4951405;28;20453;-67
2022/09/20 06:18:27;;;;;;;34.67;6.80;;;11.20;99.90;;;;;;4944749;28;20524;-66
2022/09/20 06:20:59;;;;;;;20.43;4.90;;;10.90;72.10;;;;;;4949521;28;20489;-67
2022/09/20 06:23:24;;;;;;;23.53;6.40;;;10.80;1.00;;;;;;4951993;28;20536;-67
2022/09/20 06:26:01;;;;;;;27.53;5.77;;;10.70;99.90;;;;;;4951864;28;20871;-66
2022/09/20 06:28:37;;;;;;;12.60;4.60;;;10.60;1.00;;;;;;4951190;28;20260;-66
2022/09/20 06:31:07;;;;;;;16.47;5.27;;;10.60;1.00;;;;;;4952137;28;21252;-67
2022/09/20 06:33:43;;;;;;;15.17;5.20;;;10.60;5.40;;;;;;4949751;28;20628;-67
2022/09/20 06:42:05;;;;;;;15.87;4.20;;;10.60;99.90;;;;;;4951410;28;20517;-67
2022/09/20 06:44:31;;;;;;;22.43;5.47;;;10.40;1.00;;;;;;4955704;28;20456;-67
2022/09/20 06:46:57;;;;;;;46.57;7.40;;;10.50;1.00;;;;;;4958410;28;20810;-67
2022/09/20 06:49:23;;;;;;;40.60;10.20;;;10.60;1.00;;;;;;4957389;28;20178;-67
2022/09/20 06:51:49;;;;;;;35.20;8.10;;;10.60;1.00;;;;;;4956333;28;20186;-67
2022/09/20 06:54:20;;;;;;;16.83;6.07;;;10.70;1.00;;;;;;4954403;28;20959;-67
2022/09/20 06:56:48;;;;;;;19.40;5.57;;;10.70;1.00;;;;;;4949436;28;20445;-67
2022/09/20 06:59:14;;;;;;;14.97;6.07;;;10.70;1.00;;;;;;4950591;28;20910;-67
2022/09/20 07:01:40;;;;;;;14.80;5.73;;;10.80;1.00;;;;;;4955626;28;20438;-67
2022/09/20 07:04:07;;;;;;;37.33;8.40;;;10.80;1.00;;;;;;4953898;28;20206;-66
2022/09/20 07:06:33;;;;;;;32.50;7.23;;;10.90;1.00;;;;;;4953418;28;20426;-66
2022/09/20 07:09:01;;;;;;;37.13;7.47;;;11.00;1.00;;;;;;4953686;28;20441;-66
2022/09/20 07:11:26;;;;;;;20.80;6.70;;;11.10;99.90;;;;;;4953458;28;20269;-66
2022/09/20 07:13:56;;;;;;;34.63;9.03;;;11.10;99.90;;;;;;4953316;28;21102;-67
2022/09/20 07:16:23;;;;;;;13.73;5.10;;;11.20;99.90;;;;;;4953370;28;20202;-67
2022/09/20 07:18:51;;;;;;;18.27;6.20;;;11.30;99.90;;;;;;4951090;28;20430;-66
2022/09/20 07:21:18;;;;;;;16.90;5.57;;;11.40;1.00;;;;;;4952497;28;20767;-66
2022/09/20 07:23:45;;;;;;;33.47;7.50;;;11.40;1.00;;;;;;4953696;28;20430;-67
2022/09/20 07:26:30;;;;;;;17.43;5.50;;;11.50;1.00;;;;;;4951903;28;20458;-67
2022/09/20 07:28:58;;;;;;;26.03;6.33;;;11.50;1.00;;;;;;4956341;28;20436;-66
2022/09/20 07:31:26;;;;;;;10.90;5.10;;;11.40;1.00;;;;;;4954718;28;20439;-66
2022/09/20 07:33:52;;;;;;;11.20;4.63;;;11.40;99.90;;;;;;4953425;28;20625;-67
2022/09/20 07:36:18;;;;;;;15.73;6.30;;;11.40;1.00;;;;;;4953805;28;20524;-65
2022/09/20 07:38:51;;;;;;;7.50;5.17;;;11.50;1.00;;;;;;4952875;28;20314;-66
2022/09/20 07:41:18;;;;;;;7.53;5.13;;;11.60;1.00;;;;;;4955651;28;20174;-66
2022/09/20 07:43:45;;;;;;;11.13;7.80;;;11.70;1.00;;;;;;4952804;28;20464;-66
2022/09/20 07:46:12;;;;;;;11.17;6.13;;;11.80;1.00;;;;;;4954821;28;20936;-67
2022/09/20 07:48:39;;;;;;;18.53;8.00;;;12.00;1.00;;;;;;4958824;28;20440;-68
2022/09/20 07:51:07;;;;;;;23.83;7.00;;;12.30;99.90;;;;;;4952112;28;20438;-67
2022/09/20 07:53:33;;;;;;;19.50;5.27;;;12.40;99.90;;;;;;4953597;28;21057;-67
2022/09/20 07:56:17;;;;;;;17.60;7.47;;;12.40;1.00;;;;;;4953136;28;20528;-67
2022/09/20 07:58:43;;;;;;;12.57;6.20;;;12.40;42.40;;;;;;4947775;28;20429;-68
2022/09/20 08:01:12;;;;;;;19.80;6.80;;;12.30;99.90;;;;;;4952450;28;20477;-67
2022/09/20 08:03:38;;;;;;;15.57;6.20;;;12.20;1.00;;;;;;4952689;28;20911;-67
2022/09/20 08:06:06;;;;;;;18.83;6.70;;;12.20;1.00;;;;;;4952250;28;20449;-66
2022/09/20 08:08:35;;;;;;;9.27;5.53;;;12.20;99.90;;;;;;4951444;28;20425;-67
2022/09/20 08:11:13;;;;;;;19.27;7.07;;;12.20;1.00;;;;;;4952152;28;20445;-67
2022/09/20 08:13:46;;;;;;;35.13;9.23;;;12.20;1.00;;;;;;4952622;28;20454;-67
2022/09/20 08:16:13;;;;;;;57.23;8.93;;;12.30;1.00;;;;;;4952646;28;20853;-67
2022/09/20 08:18:45;;;;;;;35.53;8.63;;;12.40;2.10;;;;;;4952616;28;20545;-67
2022/09/20 08:21:11;;;;;;;26.73;8.87;;;12.50;1.00;;;;;;4951836;28;20465;-67
2022/09/20 08:23:39;;;;;;;10.93;5.40;;;12.50;1.00;;;;;;4952446;28;20426;-68
2022/09/20 08:26:07;;;;;;;9.13;5.70;;;12.60;1.00;;;;;;4952465;28;20461;-67
2022/09/20 08:28:33;;;;;;;8.97;5.80;;;12.40;1.00;;;;;;4950970;28;20496;-68
2022/09/20 08:31:05;;;;;;;21.43;6.30;;;12.50;1.00;;;;;;4951696;28;20486;-67
2022/09/20 08:33:31;;;;;;;12.63;6.20;;;12.50;1.00;;;;;;4951580;28;20198;-67
2022/09/20 08:35:57;;;;;;;23.73;8.00;;;12.50;1.00;;;;;;4951763;28;20454;-68
2022/09/20 08:38:26;;;;;;;8.70;5.33;;;12.50;1.00;;;;;;4953868;28;20452;-68
2022/09/20 08:41:00;;;;;;;10.20;5.90;;;12.60;1.00;;;;;;4951626;28;20174;-67
2022/09/20 08:43:29;;;;;;;7.80;6.00;;;12.40;99.90;;;;;;4953541;28;20434;-68
2022/09/20 08:45:58;;;;;;;8.37;5.70;;;12.40;1.00;;;;;;4955186;28;20882;-67
2022/09/20 08:48:31;;;;;;;11.33;5.93;;;12.50;99.90;;;;;;4956833;28;20867;-66
2022/09/20 08:50:56;;;;;;;9.00;6.20;;;12.50;99.90;;;;;;4957112;28;20596;-66
2022/09/20 08:53:22;;;;;;;17.30;7.80;;;12.50;92.70;;;;;;4955663;28;20540;-66
2022/09/20 08:55:48;;;;;;;9.13;6.27;;;12.50;91.30;;;;;;4954073;28;20196;-65
2022/09/20 08:58:15;;;;;;;15.33;7.57;;;12.60;1.00;;;;;;4956723;28;20307;-66
2022/09/20 09:00:45;;;;;;;11.30;5.40;;;12.70;1.00;;;;;;4950945;28;20628;-66
2022/09/20 09:03:15;;;;;;;9.83;7.03;;;12.80;1.00;;;;;;4955866;28;20441;-67
2022/09/20 09:05:45;;;;;;;18.30;5.80;;;12.80;1.00;;;;;;4957348;28;21069;-67
2022/09/20 09:08:17;;;;;;;8.30;4.63;;;12.90;99.90;;;;;;4957428;28;20442;-67
2022/09/20 09:10:52;;;;;;;26.30;6.30;;;12.90;99.90;;;;;;4950452;28;20933;-67
2022/09/20 09:13:35;;;;;;;37.97;6.70;;;12.90;99.90;;;;;;4959080;28;20459;-66
2022/09/20 09:16:10;;;;;;;24.23;6.90;;;13.00;99.90;;;;;;4956543;28;20456;-66
2022/09/20 09:18:39;;;;;;;11.93;5.37;;;13.20;56.40;;;;;;4953797;28;20511;-66
2022/09/20 09:21:07;;;;;;;9.10;3.73;;;13.30;1.00;;;;;;4955938;28;20962;-66
2022/09/20 09:23:48;;;;;;;21.23;5.20;;;13.20;1.00;;;;;;4958076;28;20964;-67
2022/09/20 09:26:23;;;;;;;5.07;3.13;;;13.30;1.00;;;;;;4955970;28;20454;-68
2022/09/20 09:29:13;;;;;;;8.43;3.20;;;13.50;1.00;;;;;;4957351;28;20432;-67
2022/09/20 09:31:39;;;;;;;5.50;4.93;;;13.80;1.00;;;;;;4955671;28;20429;-67
2022/09/20 09:34:25;;;;;;;17.20;4.70;;;13.90;1.00;;;;;;4955965;28;20531;-67
2022/09/20 09:36:53;;;;;;;8.73;4.07;;;13.90;1.00;;;;;;4952622;28;20217;-68
2022/09/20 09:39:22;;;;;;;10.27;4.70;;;13.80;1.00;;;;;;4955762;28;20846;-67
2022/09/20 09:41:47;;;;;;;13.40;4.73;;;13.80;1.00;;;;;;4955406;28;20460;-67
2022/09/20 09:44:32;;;;;;;16.30;4.50;;;13.80;1.00;;;;;;4956096;28;21035;-67
2022/09/20 09:46:59;;;;;;;6.40;2.87;;;14.10;1.00;;;;;;4953782;28;20186;-66
2022/09/20 09:49:32;;;;;;;7.20;3.20;;;14.70;99.90;;;;;;4956506;28;20426;-66
2022/09/20 09:52:01;;;;;;;16.70;4.70;;;15.10;99.90;;;;;;4957017;28;20525;-66
2022/09/20 09:54:30;;;;;;;6.97;3.17;;;15.50;99.90;;;;;;4957112;28;20461;-66
2022/09/20 09:57:19;;;;;;;43.93;6.57;;;15.40;99.90;;;;;;4955517;28;20429;-65
2022/09/20 09:59:51;;;;;;;31.17;7.50;;;15.10;99.90;;;;;;4956572;28;20527;-67
2022/09/20 10:02:41;;;;;;;21.20;4.40;;;14.80;99.90;;;;;;4959632;28;20426;-67
2022/09/20 10:05:46;;;;;;;14.13;4.50;;;14.90;99.90;;;;;;4962258;28;20955;-67
2022/09/20 10:08:24;;;;;;;29.03;4.63;;;15.50;99.90;;;;;;4941138;28;20504;-67
2022/09/20 10:11:19;;;;;;;10.67;2.43;;;16.10;99.90;;;;;;4955770;28;20440;-67
2022/09/20 10:14:06;;;;;;;7.20;2.57;;;16.30;99.90;;;;;;4953010;28;20918;-67
2022/09/20 10:16:32;;;;;;;45.00;7.73;;;16.80;99.90;;;;;;4958262;28;20429;-66
2022/09/20 10:19:15;;;;;;;14.73;3.70;;;16.80;99.90;;;;;;4956765;28;20545;-67
2022/09/20 10:22:00;;;;;;;24.37;5.47;;;17.00;99.90;;;;;;4951148;28;20452;-67
2022/09/20 10:24:41;;;;;;;18.20;3.70;;;16.50;99.90;;;;;;4954984;28;20453;-67
2022/09/20 10:27:43;;;;;;;6.73;2.53;;;16.10;99.90;;;;;;4956284;28;20553;-67
2022/09/20 10:30:17;;;;;;;3.80;2.80;;;15.90;99.90;;;;;;4949599;28;20441;-67
2022/09/20 10:32:49;;;;;;;4.73;1.90;;;15.60;99.90;;;;;;4957664;28;20545;-67
2022/09/20 10:35:24;;;;;;;5.00;1.83;;;15.40;99.90;;;;;;4956534;28;20489;-67
2022/09/20 10:37:53;;;;;;;7.43;1.80;;;15.30;99.90;;;;;;4954296;28;20441;-67
2022/09/20 10:43:44;;;;;;;13.40;2.70;;;15.60;99.90;;;;;;4955494;28;20484;-67
2022/09/20 10:46:25;;;;;;;10.40;2.70;;;15.10;99.90;;;;;;4954583;28;20573;-67
2022/09/20 10:49:16;;;;;;;5.97;2.80;;;15.20;99.90;;;;;;4955589;28;20429;-67
2022/09/20 10:52:19;;;;;;;9.33;3.10;;;15.10;99.90;;;;;;4948922;28;20947;-67
2022/09/20 10:55:03;;;;;;;16.50;3.60;;;15.20;99.90;;;;;;4951897;28;20468;-68
2022/09/20 10:58:07;;;;;;;12.50;2.90;;;15.20;99.90;;;;;;4956567;28;20529;-67
2022/09/20 11:00:36;;;;;;;8.17;3.10;;;15.00;99.90;;;;;;4930975;28;20436;-67
2022/09/20 11:03:15;;;;;;;11.17;2.63;;;14.90;99.90;;;;;;4956205;28;20426;-68
2022/09/20 11:05:57;;;;;;;6.83;3.03;;;14.90;99.90;;;;;;4955309;28;20445;-67
2022/09/20 11:08:27;;;;;;;9.60;2.23;;;15.20;99.90;;;;;;4952790;28;20422;-67
2022/09/20 11:11:01;;;;;;;10.47;2.63;;;15.20;99.90;;;;;;4954394;28;20426;-67
2022/09/20 11:13:44;;;;;;;15.77;2.83;;;15.00;99.90;;;;;;4950924;28;20471;-67
2022/09/20 11:16:36;;;;;;;10.63;3.07;;;15.00;99.90;;;;;;4953707;28;20442;-67
2022/09/20 11:19:25;;;;;;;4.60;2.03;;;15.10;99.90;;;;;;4952016;28;20438;-67
2022/09/20 11:22:22;;;;;;;4.30;2.27;;;15.10;99.90;;;;;;4959817;28;20429;-67
2022/09/20 11:24:57;;;;;;;6.47;2.57;;;15.00;99.90;;;;;;4946684;28;20860;-66
2022/09/20 11:27:30;;;;;;;6.47;1.83;;;15.10;99.90;;;;;;4953178;28;20965;-67
2022/09/20 11:30:12;;;;;;;13.50;3.07;;;15.50;99.90;;;;;;4952461;28;20438;-68
2022/09/20 11:32:42;;;;;;;9.27;3.03;;;15.40;99.90;;;;;;4952894;28;20829;-67
2022/09/20 11:35:23;;;;;;;10.03;2.63;;;15.30;99.90;;;;;;4952502;28;20910;-68
2022/09/20 11:38:13;;;;;;;19.23;4.17;;;15.30;99.90;;;;;;4950301;28;20421;-68
2022/09/20 11:40:52;;;;;;;4.83;2.00;;;15.40;99.90;;;;;;4953521;28;20437;-68
2022/09/20 11:43:20;;;;;;;10.63;2.87;;;15.20;99.90;;;;;;4954677;28;20497;-67
2022/09/20 11:45:52;;;;;;;4.90;2.00;;;15.10;99.90;;;;;;4952754;28;20555;-68
2022/09/20 11:48:26;;;;;;;2.13;1.70;;;15.10;99.90;;;;;;4952765;28;20433;-67
2022/09/20 11:51:28;;;;;;;24.63;4.57;;;15.30;99.90;;;;;;4953660;28;20501;-67
2022/09/20 11:54:13;;;;;;;11.80;3.47;;;15.30;99.90;;;;;;4949081;28;20957;-65
2022/09/20 11:56:39;;;;;;;17.60;3.30;;;15.40;99.90;;;;;;4953789;28;20445;-67
2022/09/20 11:59:21;;;;;;;19.67;3.00;;;15.40;99.90;;;;;;4953046;28;20516;-67
2022/09/20 12:01:47;;;;;;;7.40;2.50;;;15.40;99.90;;;;;;4951530;28;20478;-67
2022/09/20 12:04:24;;;;;;;5.60;2.00;;;15.60;99.90;;;;;;4953024;28;20480;-67
2022/09/20 12:06:59;;;;;;;6.80;2.20;;;15.80;99.90;;;;;;4949541;28;20180;-67
2022/09/20 12:09:30;;;;;;;5.97;2.70;;;16.20;99.90;;;;;;4953459;28;20762;-68
2022/09/20 12:11:58;;;;;;;6.40;2.03;;;16.10;99.90;;;;;;4953067;28;20528;-68
2022/09/20 12:14:27;;;;;;;4.77;1.87;;;16.10;99.90;;;;;;4953653;28;20472;-67
2022/09/20 12:16:54;;;;;;;5.97;1.70;;;16.20;99.90;;;;;;4953872;28;20937;-66
2022/09/20 12:19:32;;;;;;;9.37;2.87;;;16.10;99.90;;;;;;4952795;28;20445;-67
2022/09/20 12:21:57;;;;;;;28.03;4.83;;;16.10;99.90;;;;;;4953972;28;20496;-68
2022/09/20 12:24:32;;;;;;;9.33;2.43;;;16.30;99.90;;;;;;4950412;28;21045;-67
2022/09/20 12:26:59;;;;;;;20.93;3.90;;;16.40;99.90;;;;;;4948764;28;20260;-68
2022/09/20 12:29:32;;;;;;;8.83;1.97;;;16.30;99.90;;;;;;4952110;28;20463;-66
2022/09/20 12:32:23;;;;;;;4.80;2.00;;;16.40;99.90;;;;;;4951874;28;20434;-67
2022/09/20 12:34:48;;;;;;;15.40;4.30;;;16.50;99.90;;;;;;4948585;28;20545;-67
2022/09/20 12:37:24;;;;;;;19.93;4.40;;;16.70;99.90;;;;;;4952049;28;21061;-67
2022/09/20 12:39:53;;;;;;;8.53;2.13;;;16.80;99.90;;;;;;4948284;28;20182;-67
2022/09/20 12:42:20;;;;;;;6.27;2.17;;;16.70;99.90;;;;;;4952594;28;20801;-67
2022/09/20 12:44:48;;;;;;;4.93;1.60;;;16.80;99.90;;;;;;4953006;28;20476;-67
2022/09/20 12:47:32;;;;;;;8.87;2.77;;;16.20;99.90;;;;;;4951321;28;21073;-66
2022/09/20 12:52:56;;;;;;;12.30;3.03;;;16.10;99.90;;;;;;4948536;28;20998;-66
2022/09/20 12:55:53;;;;;;;8.17;2.30;;;15.90;99.90;;;;;;4953092;28;20448;-67
2022/09/20 12:58:33;;;;;;;8.47;2.80;;;15.70;99.90;;;;;;4952472;28;20521;-67
2022/09/20 13:01:02;;;;;;;12.50;3.33;;;15.80;99.90;;;;;;4951717;28;20442;-67
2022/09/20 13:03:34;;;;;;;7.50;2.57;;;16.00;99.90;;;;;;4954520;28;20508;-67
2022/09/20 13:06:05;;;;;;;14.27;3.17;;;15.90;99.90;;;;;;4951889;28;20520;-67
2022/09/20 13:08:52;;;;;;;7.67;2.47;;;15.80;99.90;;;;;;4951413;28;20422;-67
2022/09/20 13:11:20;;;;;;;4.90;1.80;;;16.00;99.90;;;;;;4953013;28;20468;-67
2022/09/20 13:13:54;;;;;;;3.70;1.80;;;16.10;99.90;;;;;;4952088;28;20874;-67
2022/09/20 13:17:01;;;;;;;4.03;2.27;;;15.90;99.90;;;;;;4955775;28;20445;-68
2022/09/20 13:19:42;;;;;;;7.90;2.00;;;15.90;99.90;;;;;;4911838;28;20421;-67
2022/09/20 13:22:31;;;;;;;3.57;1.63;;;15.80;99.90;;;;;;4955431;28;20858;-66
2022/09/20 13:25:03;;;;;;;2.97;2.00;;;15.50;99.90;;;;;;4954113;28;20457;-66
2022/09/20 13:27:33;;;;;;;13.57;2.73;;;15.50;99.90;;;;;;4952928;28;20475;-66
2022/09/20 13:30:32;;;;;;;5.57;2.17;;;15.80;99.90;;;;;;4956337;28;20980;-65
2022/09/20 13:33:19;;;;;;;5.27;2.23;;;16.10;99.90;;;;;;4949568;28;20469;-66
2022/09/20 13:35:48;;;;;;;3.23;1.70;;;15.80;99.90;;;;;;4957510;28;20955;-66
2022/09/20 13:38:23;;;;;;;4.73;1.50;;;15.50;99.90;;;;;;4960723;28;20483;-66
2022/09/20 13:40:51;;;;;;;7.47;2.10;;;15.50;99.90;;;;;;4952167;28;20435;-64
2022/09/20 13:43:35;;;;;;;6.23;1.60;;;15.60;99.90;;;;;;4955307;28;20875;-66
2022/09/20 13:46:27;;;;;;;9.70;2.33;;;15.60;99.90;;;;;;4955226;28;20520;-65
2022/09/20 13:49:14;;;;;;;6.20;2.40;;;15.50;99.90;;;;;;4951212;28;20441;-66
2022/09/20 13:51:40;;;;;;;28.57;3.97;;;15.50;99.90;;;;;;4956006;28;20429;-67
2022/09/20 13:54:26;;;;;;;11.77;3.00;;;15.50;99.90;;;;;;4955686;28;20461;-67